createdAt,value
2019-03-11T00:00:56.987Z,95020.91
2019-03-11T00:03:26.377Z,95025.14
2019-03-11T00:05:55.748Z,95013.50
2019-03-11T00:08:25.186Z,95007.02
2019-03-11T00:10:54.552Z,95009.36
2019-03-11T00:13:24.379Z,95018.47
2019-03-11T00:15:54.611Z,95024.90
2019-03-11T00:18:24.015Z,95026.36
2019-03-11T00:20:53.753Z,95026.45
2019-03-11T00:23:23.122Z,95017.41
2019-03-11T00:25:52.494Z,95017.43
2019-03-11T00:28:21.871Z,95011.73
2019-03-11T00:30:51.279Z,95007.08
2019-03-11T00:33:20.732Z,95010.30
2019-03-11T00:35:50.107Z,95013.70
2019-03-11T00:38:19.499Z,95012.33
2019-03-11T00:40:48.860Z,95019.55
2019-03-11T00:43:18.291Z,95014.80
2019-03-11T00:45:48.134Z,95008.22
2019-03-11T00:48:17.517Z,95011.97
2019-03-11T00:50:46.964Z,95009.70
2019-03-11T00:53:16.370Z,94998.39
2019-03-11T00:55:45.718Z,95002.19
2019-03-11T00:58:15.130Z,95006.12
2019-03-11T01:00:44.594Z,95005.33
2019-03-11T01:03:13.997Z,95002.72
2019-03-11T01:05:43.378Z,95002.88
2019-03-11T01:08:12.760Z,95005.22
2019-03-11T01:10:42.164Z,95019.20
2019-03-11T01:13:11.633Z,95015.20
2019-03-11T01:15:40.997Z,94962.70
2019-03-11T01:18:10.383Z,95025.78
2019-03-11T01:20:39.733Z,95022.46
2019-03-11T01:23:09.096Z,95016.92
2019-03-11T01:25:38.428Z,95017.47
2019-03-11T01:28:07.823Z,95017.99
2019-03-11T01:30:37.194Z,95017.64
2019-03-11T01:33:06.950Z,95022.84
2019-03-11T01:35:36.336Z,95023.89
2019-03-11T01:38:05.833Z,95010.06
2019-03-11T01:40:35.335Z,95018.42
2019-03-11T01:43:04.770Z,95008.09
2019-03-11T01:45:34.186Z,95019.11
2019-03-11T01:48:04.006Z,95023.15
2019-03-11T01:50:33.439Z,95016.41
2019-03-11T01:53:03.218Z,95013.94
2019-03-11T01:55:32.659Z,95014.95
2019-03-11T01:58:02.088Z,95010.15
2019-03-11T02:00:31.458Z,95003.61
2019-03-11T02:03:00.803Z,95007.34
2019-03-11T02:05:30.171Z,94936.57
2019-03-11T02:07:59.910Z,95001.14
2019-03-11T02:10:29.326Z,95004.75
2019-03-11T02:12:58.997Z,94993.96
2019-03-11T02:15:28.822Z,94999.56
2019-03-11T02:17:58.199Z,94994.72
2019-03-11T02:20:27.614Z,94993.72
2019-03-11T02:22:56.954Z,94995.95
2019-03-11T02:25:26.357Z,94995.95
2019-03-11T02:27:55.724Z,95000.47
2019-03-11T02:30:25.045Z,95004.98
2019-03-11T02:32:54.419Z,95007.22
2019-03-11T02:35:32.666Z,94999.13
2019-03-11T02:38:02.068Z,94990.03
2019-03-11T02:40:31.522Z,94996.67
2019-03-11T02:43:00.943Z,94996.09
2019-03-11T02:45:30.348Z,95011.37
2019-03-11T02:47:59.754Z,94996.11
2019-03-11T02:50:29.167Z,94990.37
2019-03-11T02:52:58.549Z,95004.86
2019-03-11T02:55:27.942Z,95009.11
2019-03-11T02:57:57.339Z,95008.33
2019-03-11T03:00:26.706Z,95021.61
2019-03-11T03:03:30.455Z,95028.77
2019-03-11T03:06:03.777Z,95026.28
2019-03-11T03:08:33.124Z,95030.09
2019-03-11T03:11:02.551Z,95033.88
2019-03-11T03:13:31.936Z,95030.52
2019-03-11T03:16:01.265Z,95036.28
2019-03-11T03:18:30.638Z,95034.41
2019-03-11T03:21:00.007Z,95037.31
2019-03-11T03:23:29.793Z,95033.06
2019-03-11T03:25:59.153Z,95035.06
2019-03-11T03:28:28.861Z,95039.81
2019-03-11T03:30:58.229Z,95035.97
2019-03-11T03:33:27.587Z,95029.67
2019-03-11T03:35:56.974Z,95037.89
2019-03-11T03:38:30.974Z,95043.06
2019-03-11T03:40:57.421Z,95047.22
2019-03-11T03:43:26.782Z,95050.14
2019-03-11T03:45:56.153Z,95042.51
2019-03-11T03:48:25.561Z,95050.58
2019-03-11T03:50:54.893Z,95049.80
2019-03-11T03:53:24.241Z,95060.25
2019-03-11T03:55:53.596Z,95057.77
2019-03-11T03:58:22.995Z,95066.98
2019-03-11T04:00:52.461Z,95062.94
2019-03-11T04:03:21.840Z,95068.41
2019-03-11T04:05:51.195Z,95071.10
2019-03-11T04:08:20.594Z,95071.69
2019-03-11T04:10:49.968Z,95074.38
2019-03-11T04:13:19.338Z,95085.82
2019-03-11T04:15:48.712Z,95086.95
2019-03-11T04:18:18.201Z,95091.00
2019-03-11T04:20:47.564Z,95088.64
2019-03-11T04:23:16.980Z,95093.27
2019-03-11T04:25:46.449Z,95095.06
2019-03-11T04:28:15.791Z,95084.39
2019-03-11T04:30:45.205Z,95087.98
2019-03-11T04:33:14.585Z,95090.13
2019-03-11T04:35:43.977Z,95090.78
2019-03-11T04:38:13.412Z,95087.98
2019-03-11T04:40:42.773Z,95085.82
2019-03-11T04:43:12.166Z,95085.84
2019-03-11T04:45:41.551Z,95090.58
2019-03-11T04:48:10.905Z,95094.17
2019-03-11T04:50:40.299Z,95091.13
2019-03-11T04:53:09.696Z,95088.01
2019-03-11T04:55:39.102Z,95087.34
2019-03-11T04:58:08.444Z,95080.70
2019-03-11T05:00:37.884Z,95075.88
2019-03-11T05:03:07.303Z,95084.19
2019-03-11T05:05:36.669Z,95084.86
2019-03-11T05:08:06.071Z,95083.27
2019-03-11T05:10:35.500Z,95086.74
2019-03-11T05:13:04.910Z,95089.34
2019-03-11T05:15:34.406Z,95087.20
2019-03-11T05:18:04.264Z,95087.99
2019-03-11T05:20:33.746Z,95090.01
2019-03-11T05:23:04.072Z,95093.04
2019-03-11T05:25:36.349Z,95093.05
2019-03-11T05:28:05.758Z,95089.44
2019-03-11T05:30:35.228Z,95091.47
2019-03-11T05:33:04.795Z,95087.61
2019-03-11T05:35:34.198Z,95082.41
2019-03-11T05:38:05.531Z,95092.45
2019-03-11T05:40:34.897Z,95082.41
2019-03-11T05:43:04.261Z,95083.09
2019-03-11T05:45:33.629Z,95082.06
2019-03-11T05:48:02.985Z,95081.47
2019-03-11T05:50:32.389Z,95082.45
2019-03-11T05:53:01.716Z,95084.04
2019-03-11T05:55:31.106Z,95080.31
2019-03-11T05:58:00.661Z,95081.73
2019-03-11T06:00:31.455Z,95075.97
2019-03-11T06:03:00.932Z,95046.97
2019-03-11T06:05:30.342Z,95092.73
2019-03-11T06:07:59.848Z,95087.64
2019-03-11T06:10:29.226Z,95088.31
2019-03-11T06:12:59.100Z,95090.47
2019-03-11T06:15:28.514Z,95091.81
2019-03-11T06:17:57.923Z,95087.58
2019-03-11T06:20:41.661Z,95099.69
2019-03-11T06:23:11.958Z,95103.33
2019-03-11T06:25:41.775Z,95111.88
2019-03-11T06:28:11.224Z,95113.02
2019-03-11T06:30:40.655Z,95092.59
2019-03-11T06:33:10.117Z,95094.59
2019-03-11T06:35:40.479Z,95103.50
2019-03-11T06:38:10.667Z,95102.14
2019-03-11T06:40:40.227Z,95099.28
2019-03-11T06:43:09.727Z,94945.13
2019-03-11T06:45:44.221Z,95095.01
2019-03-11T06:48:31.999Z,95086.73
2019-03-11T06:51:05.199Z,95088.02
2019-03-11T06:53:34.709Z,95085.86
2019-03-11T06:56:05.526Z,95095.30
2019-03-11T06:58:34.977Z,95087.95
2019-03-11T07:01:04.400Z,95087.16
2019-03-11T07:03:40.113Z,95089.67
2019-03-11T07:06:12.586Z,95080.85
2019-03-11T07:08:41.959Z,95074.02
2019-03-11T07:11:11.325Z,94471.00
2019-03-11T07:13:40.729Z,95068.39
2019-03-11T07:16:10.050Z,95070.58
2019-03-11T07:18:39.435Z,95001.34
2019-03-11T07:21:08.826Z,95069.86
2019-03-11T07:23:38.237Z,95053.14
2019-03-11T07:26:09.969Z,95055.77
2019-03-11T07:28:39.393Z,95054.49
2019-03-11T07:31:09.061Z,95056.28
2019-03-11T07:33:38.556Z,95042.13
2019-03-11T07:36:10.101Z,95042.91
2019-03-11T07:38:39.751Z,95040.16
2019-03-11T07:41:09.261Z,95033.31
2019-03-11T07:43:38.698Z,95036.05
2019-03-11T07:46:08.565Z,95036.27
2019-03-11T07:48:37.949Z,94904.51
2019-03-11T07:51:07.415Z,95031.98
2019-03-11T07:53:36.884Z,95032.36
2019-03-11T07:56:06.250Z,95025.33
2019-03-11T07:58:35.684Z,95019.69
2019-03-11T08:01:06.356Z,95029.22
2019-03-11T08:03:36.746Z,95016.91
2019-03-11T08:06:17.824Z,95018.63
2019-03-11T08:08:38.154Z,95010.14
2019-03-11T08:11:07.520Z,95012.03
2019-03-11T08:13:37.193Z,95021.17
2019-03-11T08:16:10.102Z,95009.41
2019-03-11T08:18:39.567Z,95011.09
2019-03-11T08:21:08.931Z,95006.88
2019-03-11T08:23:38.469Z,95004.59
2019-03-11T08:26:07.889Z,95006.05
2019-03-11T08:28:37.271Z,94998.67
2019-03-11T08:31:06.741Z,94997.59
2019-03-11T08:33:36.444Z,94999.80
2019-03-11T08:36:05.857Z,94979.44
2019-03-11T08:38:35.259Z,94975.35
2019-03-11T08:41:04.701Z,94969.80
2019-03-11T08:43:34.288Z,94958.61
2019-03-11T08:46:03.756Z,94958.22
2019-03-11T08:48:33.191Z,94959.38
2019-03-11T08:51:02.718Z,94955.41
2019-03-11T08:53:32.140Z,94952.84
2019-03-11T08:56:01.901Z,94944.05
2019-03-11T08:58:31.274Z,94945.58
2019-03-11T09:01:00.693Z,94930.87
2019-03-11T09:03:30.987Z,94934.58
2019-03-11T09:06:00.366Z,94931.00
2019-03-11T09:08:29.929Z,94932.58
2019-03-11T09:10:59.309Z,94919.11
2019-03-11T09:13:28.803Z,94913.33
2019-03-11T09:15:58.315Z,94903.31
2019-03-11T09:18:27.692Z,94900.05
2019-03-11T09:20:57.101Z,94897.80
2019-03-11T09:23:26.667Z,94892.95
2019-03-11T09:25:56.064Z,94892.44
2019-03-11T09:28:25.807Z,94894.10
2019-03-11T09:30:55.299Z,94890.80
2019-03-11T09:33:24.693Z,94881.11
2019-03-11T09:35:54.206Z,94881.41
2019-03-11T09:38:24.008Z,94889.88
2019-03-11T09:40:53.540Z,94883.25
2019-03-11T09:43:22.961Z,94875.09
2019-03-11T09:45:52.717Z,94883.73
2019-03-11T09:48:22.501Z,94886.58
2019-03-11T09:50:52.189Z,94872.06
2019-03-11T09:53:21.563Z,94868.27
2019-03-11T09:55:50.969Z,94875.95
2019-03-11T09:58:22.049Z,94875.27
2019-03-11T10:00:51.497Z,94872.31
2019-03-11T10:03:21.415Z,94877.99
2019-03-11T10:05:50.801Z,94876.82
2019-03-11T10:08:20.701Z,94873.47
2019-03-11T10:10:50.143Z,94869.13
2019-03-11T10:13:19.570Z,94871.00
2019-03-11T10:15:49.640Z,94871.09
2019-03-11T10:18:19.050Z,94870.45
2019-03-11T10:20:48.604Z,94878.13
2019-03-11T10:23:18.172Z,94872.95
2019-03-11T10:25:47.882Z,94869.04
2019-03-11T10:28:17.267Z,94860.84
2019-03-11T10:30:46.711Z,94864.54
2019-03-11T10:33:16.112Z,94861.30
2019-03-11T10:35:45.576Z,94862.63
2019-03-11T10:38:14.947Z,94707.66
2019-03-11T10:40:44.354Z,94856.09
2019-03-11T10:43:13.969Z,94855.38
2019-03-11T10:45:45.795Z,94857.42
2019-03-11T10:48:15.226Z,94857.45
2019-03-11T10:50:44.831Z,94852.67
2019-03-11T10:53:14.355Z,94848.21
2019-03-11T10:55:44.101Z,94846.77
2019-03-11T10:58:13.873Z,94839.45
2019-03-11T11:00:43.613Z,94834.18
2019-03-11T11:03:13.029Z,94844.72
2019-03-11T11:05:42.637Z,94810.31
2019-03-11T11:08:12.296Z,94838.41
2019-03-11T11:10:41.778Z,94822.02
2019-03-11T11:13:12.017Z,94827.18
2019-03-11T11:15:41.687Z,94826.75
2019-03-11T11:18:11.238Z,94811.87
2019-03-11T11:20:40.661Z,94812.44
2019-03-11T11:23:19.469Z,94804.84
2019-03-11T11:25:48.830Z,94811.42
2019-03-11T11:28:18.239Z,94804.27
2019-03-11T11:30:47.676Z,94806.80
2019-03-11T11:33:17.032Z,94794.31
2019-03-11T11:35:46.395Z,94792.55
2019-03-11T11:38:15.734Z,94777.12
2019-03-11T11:40:45.601Z,94778.34
2019-03-11T11:43:15.036Z,94772.90
2019-03-11T11:45:44.509Z,94767.22
2019-03-11T11:48:13.903Z,94765.41
2019-03-11T11:50:43.553Z,94761.20
2019-03-11T11:53:12.976Z,94747.16
2019-03-11T11:55:42.404Z,94751.50
2019-03-11T11:58:11.798Z,94743.92
2019-03-11T12:00:43.832Z,94739.45
2019-03-11T12:03:13.160Z,94733.05
2019-03-11T12:05:42.493Z,94734.05
2019-03-11T12:08:11.858Z,94724.75
2019-03-11T12:10:41.344Z,94727.94
2019-03-11T12:13:10.715Z,94718.53
2019-03-11T12:15:40.121Z,94719.41
2019-03-11T12:18:09.457Z,94710.34
2019-03-11T12:20:38.820Z,94710.16
2019-03-11T12:23:08.226Z,94702.17
2019-03-11T12:25:38.144Z,94695.24
2019-03-11T12:28:07.558Z,94695.24
2019-03-11T12:30:37.060Z,94697.00
2019-03-11T12:33:06.653Z,94689.25
2019-03-11T12:35:36.265Z,94683.17
2019-03-11T12:38:05.869Z,94677.90
2019-03-11T12:40:35.312Z,94675.50
2019-03-11T12:43:04.712Z,94668.48
2019-03-11T12:45:34.126Z,94667.58
2019-03-11T12:48:03.524Z,94665.70
2019-03-11T12:50:32.938Z,94654.37
2019-03-11T12:53:02.345Z,94651.02
2019-03-11T12:55:31.775Z,94651.02
2019-03-11T12:58:01.191Z,94409.61
2019-03-11T13:00:30.576Z,94644.53
2019-03-11T13:03:00.000Z,94642.09
2019-03-11T13:05:29.391Z,94636.13
2019-03-11T13:07:59.196Z,94638.60
2019-03-11T13:10:28.635Z,94630.49
2019-03-11T13:12:58.049Z,94623.98
2019-03-11T13:15:27.585Z,94488.74
2019-03-11T13:17:57.031Z,94623.77
2019-03-11T13:20:31.968Z,94624.28
2019-03-11T13:23:01.461Z,94617.69
2019-03-11T13:25:30.851Z,94616.50
2019-03-11T13:28:00.577Z,94614.75
2019-03-11T13:30:30.101Z,94608.38
2019-03-11T13:32:59.487Z,94606.44
2019-03-11T13:35:28.856Z,94606.88
2019-03-11T13:37:58.249Z,94595.73
2019-03-11T13:40:28.164Z,94599.44
2019-03-11T13:42:57.596Z,94593.17
2019-03-11T13:45:26.978Z,94599.85
2019-03-11T13:47:56.415Z,94587.22
2019-03-11T13:50:25.808Z,94580.39
2019-03-11T13:52:55.222Z,94570.06
2019-03-11T13:55:24.618Z,94579.23
2019-03-11T13:57:54.331Z,94573.77
2019-03-11T14:00:24.447Z,94563.79
2019-03-11T14:02:53.869Z,94558.30
2019-03-11T14:05:23.561Z,94550.22
2019-03-11T14:07:52.922Z,94552.39
2019-03-11T14:10:22.343Z,94554.18
2019-03-11T14:12:56.887Z,94544.23
2019-03-11T14:15:26.258Z,94551.03
2019-03-11T14:17:55.777Z,94553.66
2019-03-11T14:20:25.241Z,94552.42
2019-03-11T14:22:54.678Z,94566.91
2019-03-11T14:25:24.072Z,94555.22
2019-03-11T14:27:53.569Z,94543.75
2019-03-11T14:30:24.077Z,94544.31
2019-03-11T14:32:53.553Z,94541.08
2019-03-11T14:35:23.117Z,94543.14
2019-03-11T14:37:52.700Z,94541.73
2019-03-11T14:40:24.912Z,94536.59
2019-03-11T14:42:54.351Z,94532.02
2019-03-11T14:45:25.006Z,94542.24
2019-03-11T14:47:54.422Z,94553.82
2019-03-11T14:50:24.187Z,94549.39
2019-03-11T14:52:53.532Z,94546.70
2019-03-11T14:55:22.911Z,94538.35
2019-03-11T14:57:52.289Z,94547.92
2019-03-11T15:00:22.526Z,94549.27
2019-03-11T15:02:52.490Z,94556.58
2019-03-11T15:05:21.991Z,94560.55
2019-03-11T15:07:51.354Z,94555.98
2019-03-11T15:10:21.028Z,94558.31
2019-03-11T15:12:50.404Z,94569.11
2019-03-11T15:15:20.012Z,94569.09
2019-03-11T15:17:50.237Z,94553.80
2019-03-11T15:20:19.936Z,94557.23
2019-03-11T15:22:49.559Z,94557.27
2019-03-11T15:25:19.435Z,94546.49
2019-03-11T15:27:49.574Z,94559.71
2019-03-11T15:30:20.997Z,94558.92
2019-03-11T15:32:53.831Z,94553.72
2019-03-11T15:35:23.721Z,94555.57
2019-03-11T15:37:53.167Z,94572.78
2019-03-11T15:40:22.636Z,94564.20
2019-03-11T15:42:52.092Z,94569.16
2019-03-11T15:45:21.806Z,94565.38
2019-03-11T15:47:51.285Z,94564.67
2019-03-11T15:50:23.256Z,94564.52
2019-03-11T15:52:52.724Z,94565.67
2019-03-11T15:55:22.142Z,94571.66
2019-03-11T15:57:52.687Z,94574.00
2019-03-11T16:00:22.262Z,93873.05
2019-03-11T16:02:51.986Z,94579.71
2019-03-11T16:05:22.033Z,94580.93
2019-03-11T16:07:52.290Z,94579.58
2019-03-11T16:10:22.137Z,94589.15
2019-03-11T16:12:51.635Z,94581.83
2019-03-11T16:15:21.211Z,94581.34
2019-03-11T16:17:53.665Z,94592.36
2019-03-11T16:20:23.248Z,94592.41
2019-03-11T16:22:52.636Z,94584.44
2019-03-11T16:25:22.151Z,94583.43
2019-03-11T16:27:51.571Z,94588.50
2019-03-11T16:30:21.131Z,94586.00
2019-03-11T16:33:00.445Z,94593.98
2019-03-11T16:35:22.420Z,94541.83
2019-03-11T16:37:51.785Z,94603.70
2019-03-11T16:40:21.278Z,94608.89
2019-03-11T16:42:50.662Z,94612.17
2019-03-11T16:45:20.607Z,94602.09
2019-03-11T16:47:50.277Z,94612.85
2019-03-11T16:50:19.760Z,94614.34
2019-03-11T16:52:49.150Z,94605.63
2019-03-11T16:55:21.050Z,94618.08
2019-03-11T16:57:53.446Z,94617.43
2019-03-11T17:00:25.939Z,94605.79
2019-03-11T17:02:55.485Z,94604.70
2019-03-11T17:05:24.931Z,94614.32
2019-03-11T17:07:54.347Z,94607.61
2019-03-11T17:10:24.248Z,94613.31
2019-03-11T17:12:53.845Z,94623.08
2019-03-11T17:15:23.252Z,94617.91
2019-03-11T17:17:52.656Z,94617.91
2019-03-11T17:20:22.238Z,94625.06
2019-03-11T17:22:51.679Z,94623.49
2019-03-11T17:25:21.134Z,94626.73
2019-03-11T17:27:50.611Z,94632.11
2019-03-11T17:30:20.167Z,94639.77
2019-03-11T17:32:49.761Z,94645.89
2019-03-11T17:35:19.215Z,94643.75
2019-03-11T17:37:49.057Z,94656.13
2019-03-11T17:40:19.003Z,94645.02
2019-03-11T17:42:48.439Z,94640.64
2019-03-11T17:45:18.082Z,94646.12
2019-03-11T17:47:48.299Z,94647.30
2019-03-11T17:50:18.045Z,94638.05
2019-03-11T17:52:47.809Z,94646.15
2019-03-11T17:55:17.659Z,94646.15
2019-03-11T17:57:47.240Z,94651.70
2019-03-11T18:00:21.637Z,94649.02
2019-03-11T18:02:51.121Z,94465.34
2019-03-11T18:05:20.738Z,94664.17
2019-03-11T18:07:50.274Z,94649.52
2019-03-11T18:10:19.746Z,94642.91
2019-03-11T18:12:49.696Z,94653.56
2019-03-11T18:15:53.559Z,94664.62
2019-03-11T18:18:32.631Z,94679.48
2019-03-11T18:20:54.386Z,94680.94
2019-03-11T18:23:25.453Z,94670.48
2019-03-11T18:25:54.879Z,94664.51
2019-03-11T18:28:24.308Z,94662.29
2019-03-11T18:30:54.171Z,94659.78
2019-03-11T18:33:23.669Z,94663.43
2019-03-11T18:35:53.052Z,94676.06
2019-03-11T18:38:22.720Z,94672.59
2019-03-11T18:40:54.260Z,94683.48
2019-03-11T18:43:23.182Z,94676.27
2019-03-11T18:45:53.067Z,94683.34
2019-03-11T18:48:22.426Z,94695.39
2019-03-11T18:50:51.963Z,94701.18
2019-03-11T18:53:21.288Z,94708.09
2019-03-11T18:55:51.489Z,94708.25
2019-03-11T18:58:21.251Z,94691.09
2019-03-11T19:00:50.731Z,94694.27
2019-03-11T19:03:20.890Z,94695.50
2019-03-11T19:05:50.461Z,94701.95
2019-03-11T19:08:20.282Z,94697.41
2019-03-11T19:10:49.714Z,94697.41
2019-03-11T19:13:19.175Z,94703.77
2019-03-11T19:15:48.907Z,94697.23
2019-03-11T19:18:18.399Z,94697.23
2019-03-11T19:20:47.733Z,94694.81
2019-03-11T19:23:17.146Z,94676.87
2019-03-11T19:25:46.994Z,94689.00
2019-03-11T19:28:17.400Z,94701.72
2019-03-11T19:30:46.757Z,94702.38
2019-03-11T19:33:16.559Z,94702.38
2019-03-11T19:35:45.964Z,94696.15
2019-03-11T19:38:15.343Z,94688.31
2019-03-11T19:40:44.747Z,94685.05
2019-03-11T19:43:14.158Z,94685.05
2019-03-11T19:45:43.608Z,94680.75
2019-03-11T19:48:13.419Z,94673.13
2019-03-11T19:50:42.840Z,94676.05
2019-03-11T19:53:12.301Z,94674.89
2019-03-11T19:55:41.670Z,94678.59
2019-03-11T19:58:11.243Z,94681.44
2019-03-11T20:00:40.984Z,94687.48
2019-03-11T20:03:23.768Z,94686.84
2019-03-11T20:05:42.471Z,94682.13
2019-03-11T20:08:11.953Z,94682.13
2019-03-11T20:10:41.800Z,94679.69
2019-03-11T20:13:11.300Z,94665.61
2019-03-11T20:15:43.000Z,94665.61
2019-03-11T20:18:12.679Z,94665.38
2019-03-11T20:20:42.144Z,94665.38
2019-03-11T20:23:11.495Z,94658.69
2019-03-11T20:25:41.383Z,94653.04
2019-03-11T20:28:12.516Z,94653.04
2019-03-11T20:30:45.359Z,94658.86
2019-03-11T20:33:14.381Z,94665.94
2019-03-11T20:35:43.759Z,94668.06
2019-03-11T20:38:13.174Z,94677.41
2019-03-11T20:40:42.541Z,94672.21
2019-03-11T20:43:11.905Z,94672.21
2019-03-11T20:45:41.740Z,94674.20
2019-03-11T20:48:11.250Z,94675.21
2019-03-11T20:50:42.334Z,94672.69
2019-03-11T20:53:12.512Z,94689.09
2019-03-11T20:55:42.562Z,94689.09
2019-03-11T20:58:12.446Z,94688.47
2019-03-11T21:00:41.880Z,94688.47
2019-03-11T21:03:11.362Z,94682.91
2019-03-11T21:05:41.318Z,94682.91
2019-03-11T21:08:10.935Z,94674.02
2019-03-11T21:10:40.426Z,94674.02
2019-03-11T21:13:09.794Z,94671.72
2019-03-11T21:15:39.152Z,94674.09
2019-03-11T21:18:08.640Z,94667.34
2019-03-11T21:20:38.053Z,94664.73
2019-03-11T21:23:07.573Z,94664.73
2019-03-11T21:25:37.021Z,94668.13
2019-03-11T21:28:12.765Z,94671.27
2019-03-11T21:30:42.192Z,94682.36
2019-03-11T21:33:12.288Z,94686.67
2019-03-11T21:35:41.803Z,94689.44
2019-03-11T21:38:11.887Z,94689.81
2019-03-11T21:40:42.614Z,94696.92
2019-03-11T21:43:12.226Z,94699.96
2019-03-11T21:45:41.847Z,94682.88
2019-03-11T21:48:11.313Z,94700.50
2019-03-11T21:50:40.671Z,94696.67
2019-03-11T21:53:10.087Z,94695.63
2019-03-11T21:55:39.481Z,94688.08
2019-03-11T21:58:13.419Z,94688.08
2019-03-11T22:00:40.135Z,94692.77
2019-03-11T22:03:09.512Z,94695.91
2019-03-11T22:05:38.996Z,94695.77
2019-03-11T22:08:08.428Z,94698.08
2019-03-11T22:10:37.898Z,94704.69
2019-03-11T22:13:07.303Z,94704.69
2019-03-11T22:15:36.701Z,94705.13
2019-03-11T22:18:06.103Z,94705.13
2019-03-11T22:20:35.475Z,94704.11
2019-03-11T22:23:04.889Z,94704.24
2019-03-11T22:25:34.305Z,94693.05
2019-03-11T22:28:03.737Z,94693.05
2019-03-11T22:30:33.467Z,94700.98
2019-03-11T22:33:02.854Z,94700.98
2019-03-11T22:35:32.249Z,94700.45
2019-03-11T22:38:01.677Z,94698.84
2019-03-11T22:40:31.427Z,94697.05
2019-03-11T22:43:00.882Z,94689.36
2019-03-11T22:45:30.400Z,94683.34
2019-03-11T22:48:00.274Z,94692.48
2019-03-11T22:50:29.779Z,94677.34
2019-03-11T22:52:59.218Z,94697.03
2019-03-11T22:55:28.808Z,94697.03
2019-03-11T22:57:58.206Z,94697.83
2019-03-11T23:00:55.099Z,94694.18
2019-03-11T23:03:25.421Z,94701.45
2019-03-11T23:05:58.209Z,94708.51
2019-03-11T23:08:26.634Z,94713.78
2019-03-11T23:10:56.059Z,94716.67
2019-03-11T23:13:25.481Z,94726.45
2019-03-11T23:15:55.008Z,94726.31
2019-03-11T23:18:25.229Z,94733.78
2019-03-11T23:20:54.647Z,94728.48
2019-03-11T23:23:24.017Z,94737.25
2019-03-11T23:25:53.921Z,94729.78
2019-03-11T23:28:23.316Z,94736.71
2019-03-11T23:30:52.764Z,94728.70
2019-03-11T23:33:22.783Z,94731.02
2019-03-11T23:35:52.213Z,94740.42
2019-03-11T23:38:21.735Z,94734.67
2019-03-11T23:40:51.087Z,94744.02
2019-03-11T23:43:20.937Z,94742.87
2019-03-11T23:45:50.337Z,94738.67
2019-03-11T23:48:19.767Z,94738.29
2019-03-11T23:50:49.210Z,94732.89
2019-03-11T23:53:18.610Z,94726.06
2019-03-11T23:55:48.036Z,94724.59
2019-03-11T23:58:17.807Z,94727.43
